sensor_id;sensor_type;location;lat;lon;timestamp;P1;durP1;ratioP1;P2;durP2;ratioP2
54416;SDS011;40326;51.220;7.250;2022-10-31T00:00:50;10.50;;;6.13;;
54416;SDS011;40326;51.220;7.250;2022-10-31T00:03:16;12.35;;;6.80;;
54416;SDS011;40326;51.220;7.250;2022-10-31T00:05:46;13.75;;;6.50;;
54416;SDS011;40326;51.220;7.250;2022-10-31T00:08:13;13.82;;;6.18;;
54416;SDS011;40326;51.220;7.250;2022-10-31T00:10:39;12.50;;;6.22;;
54416;SDS011;40326;51.220;7.250;2022-10-31T00:13:05;9.52;;;5.97;;
54416;SDS011;40326;51.220;7.250;2022-10-31T00:15:32;10.40;;;6.00;;
54416;SDS011;40326;51.220;7.250;2022-10-31T00:17:59;12.40;;;5.85;;
54416;SDS011;40326;51.220;7.250;2022-10-31T00:20:24;10.05;;;6.43;;
54416;SDS011;40326;51.220;7.250;2022-10-31T00:22:49;10.00;;;6.00;;
54416;SDS011;40326;51.220;7.250;2022-10-31T00:25:14;10.60;;;6.65;;
54416;SDS011;40326;51.220;7.250;2022-10-31T00:27:40;10.95;;;6.30;;
54416;SDS011;40326;51.220;7.250;2022-10-31T00:30:06;11.07;;;6.35;;
54416;SDS011;40326;51.220;7.250;2022-10-31T00:32:31;12.35;;;6.78;;
54416;SDS011;40326;51.220;7.250;2022-10-31T00:34:57;14.05;;;6.70;;
54416;SDS011;40326;51.220;7.250;2022-10-31T00:37:22;15.30;;;7.80;;
54416;SDS011;40326;51.220;7.250;2022-10-31T00:39:47;13.05;;;6.70;;
54416;SDS011;40326;51.220;7.250;2022-10-31T00:42:14;13.95;;;7.28;;
54416;SDS011;40326;51.220;7.250;2022-10-31T00:44:39;14.27;;;7.15;;
54416;SDS011;40326;51.220;7.250;2022-10-31T00:47:05;14.15;;;7.03;;
54416;SDS011;40326;51.220;7.250;2022-10-31T00:49:30;12.65;;;6.32;;
54416;SDS011;40326;51.220;7.250;2022-10-31T00:51:55;18.00;;;7.22;;
54416;SDS011;40326;51.220;7.250;2022-10-31T00:54:21;14.65;;;7.10;;
54416;SDS011;40326;51.220;7.250;2022-10-31T00:56:46;13.00;;;7.43;;
54416;SDS011;40326;51.220;7.250;2022-10-31T00:59:11;12.93;;;7.57;;
54416;SDS011;40326;51.220;7.250;2022-10-31T01:01:36;10.20;;;6.47;;
54416;SDS011;40326;51.220;7.250;2022-10-31T01:04:02;13.93;;;7.47;;
54416;SDS011;40326;51.220;7.250;2022-10-31T01:06:27;12.50;;;7.80;;
54416;SDS011;40326;51.220;7.250;2022-10-31T01:08:52;15.25;;;10.90;;
54416;SDS011;40326;51.220;7.250;2022-10-31T01:11:19;15.60;;;9.27;;
54416;SDS011;40326;51.220;7.250;2022-10-31T01:13:46;14.27;;;7.72;;
54416;SDS011;40326;51.220;7.250;2022-10-31T01:16:13;87.57;;;80.38;;
54416;SDS011;40326;51.220;7.250;2022-10-31T01:18:40;15.60;;;8.82;;
54416;SDS011;40326;51.220;7.250;2022-10-31T01:21:07;16.05;;;10.43;;
54416;SDS011;40326;51.220;7.250;2022-10-31T01:23:37;29.08;;;21.45;;
54416;SDS011;40326;51.220;7.250;2022-10-31T01:26:12;18.42;;;11.40;;
54416;SDS011;40326;51.220;7.250;2022-10-31T01:28:43;14.13;;;7.72;;
54416;SDS011;40326;51.220;7.250;2022-10-31T06:01:06;29.85;;;14.18;;
54416;SDS011;40326;51.220;7.250;2022-10-31T06:03:31;29.92;;;14.85;;
54416;SDS011;40326;51.220;7.250;2022-10-31T06:05:56;26.63;;;14.65;;
54416;SDS011;40326;51.220;7.250;2022-10-31T06:08:22;28.92;;;15.38;;
54416;SDS011;40326;51.220;7.250;2022-10-31T06:10:47;29.20;;;14.90;;
54416;SDS011;40326;51.220;7.250;2022-10-31T06:13:12;24.60;;;14.00;;
54416;SDS011;40326;51.220;7.250;2022-10-31T06:15:37;21.10;;;13.00;;
54416;SDS011;40326;51.220;7.250;2022-10-31T06:18:04;25.42;;;13.43;;
54416;SDS011;40326;51.220;7.250;2022-10-31T06:20:30;23.95;;;13.95;;
54416;SDS011;40326;51.220;7.250;2022-10-31T06:22:57;81.38;;;15.70;;
54416;SDS011;40326;51.220;7.250;2022-10-31T06:25:22;26.77;;;13.98;;
54416;SDS011;40326;51.220;7.250;2022-10-31T06:27:47;25.45;;;13.25;;
54416;SDS011;40326;51.220;7.250;2022-10-31T06:30:13;26.70;;;13.35;;
54416;SDS011;40326;51.220;7.250;2022-10-31T06:32:38;23.45;;;12.52;;
54416;SDS011;40326;51.220;7.250;2022-10-31T06:35:03;23.05;;;12.75;;
54416;SDS011;40326;51.220;7.250;2022-10-31T06:37:29;22.88;;;14.48;;
54416;SDS011;40326;51.220;7.250;2022-10-31T06:39:54;27.92;;;17.92;;
54416;SDS011;40326;51.220;7.250;2022-10-31T06:42:20;27.38;;;14.60;;
54416;SDS011;40326;51.220;7.250;2022-10-31T06:44:45;32.13;;;15.10;;
54416;SDS011;40326;51.220;7.250;2022-10-31T06:47:10;27.30;;;14.98;;
54416;SDS011;40326;51.220;7.250;2022-10-31T06:49:35;29.48;;;15.57;;
54416;SDS011;40326;51.220;7.250;2022-10-31T06:52:01;33.83;;;16.02;;
54416;SDS011;40326;51.220;7.250;2022-10-31T06:54:26;33.13;;;16.77;;
54416;SDS011;40326;51.220;7.250;2022-10-31T06:56:51;30.60;;;16.42;;
54416;SDS011;40326;51.220;7.250;2022-10-31T06:59:17;31.48;;;17.00;;
54416;SDS011;40326;51.220;7.250;2022-10-31T07:01:42;26.73;;;14.90;;
54416;SDS011;40326;51.220;7.250;2022-10-31T07:04:11;27.00;;;14.32;;
54416;SDS011;40326;51.220;7.250;2022-10-31T07:06:36;23.20;;;14.20;;
54416;SDS011;40326;51.220;7.250;2022-10-31T07:09:02;22.52;;;12.68;;
54416;SDS011;40326;51.220;7.250;2022-10-31T07:11:28;23.58;;;12.93;;
54416;SDS011;40326;51.220;7.250;2022-10-31T07:13:53;24.83;;;14.52;;
54416;SDS011;40326;51.220;7.250;2022-10-31T07:16:19;22.42;;;13.38;;
54416;SDS011;40326;51.220;7.250;2022-10-31T07:18:44;25.55;;;14.13;;
54416;SDS011;40326;51.220;7.250;2022-10-31T07:21:09;20.48;;;12.93;;
54416;SDS011;40326;51.220;7.250;2022-10-31T07:23:34;22.67;;;13.13;;
54416;SDS011;40326;51.220;7.250;2022-10-31T07:26:00;26.40;;;14.07;;
54416;SDS011;40326;51.220;7.250;2022-10-31T07:28:25;24.77;;;13.55;;
54416;SDS011;40326;51.220;7.250;2022-10-31T07:30:52;27.83;;;14.93;;
54416;SDS011;40326;51.220;7.250;2022-10-31T07:33:21;36.72;;;21.67;;
54416;SDS011;40326;51.220;7.250;2022-10-31T07:35:48;24.23;;;14.27;;
54416;SDS011;40326;51.220;7.250;2022-10-31T07:38:13;34.05;;;21.45;;
54416;SDS011;40326;51.220;7.250;2022-10-31T07:40:40;44.55;;;22.02;;
54416;SDS011;40326;51.220;7.250;2022-10-31T07:43:07;51.72;;;23.73;;
54416;SDS011;40326;51.220;7.250;2022-10-31T07:45:32;56.63;;;23.23;;
54416;SDS011;40326;51.220;7.250;2022-10-31T07:47:58;46.40;;;22.17;;
54416;SDS011;40326;51.220;7.250;2022-10-31T07:50:27;50.92;;;24.70;;
54416;SDS011;40326;51.220;7.250;2022-10-31T07:52:57;46.45;;;24.67;;
54416;SDS011;40326;51.220;7.250;2022-10-31T07:55:24;44.95;;;21.73;;
54416;SDS011;40326;51.220;7.250;2022-10-31T07:57:56;48.20;;;24.70;;
54416;SDS011;40326;51.220;7.250;2022-10-31T08:00:23;53.47;;;25.23;;
54416;SDS011;40326;51.220;7.250;2022-10-31T08:02:55;54.15;;;24.52;;
54416;SDS011;40326;51.220;7.250;2022-10-31T08:05:25;49.90;;;24.60;;
54416;SDS011;40326;51.220;7.250;2022-10-31T08:07:51;47.17;;;23.95;;
54416;SDS011;40326;51.220;7.250;2022-10-31T08:10:16;50.40;;;24.80;;
54416;SDS011;40326;51.220;7.250;2022-10-31T08:12:41;46.83;;;23.35;;
54416;SDS011;40326;51.220;7.250;2022-10-31T08:15:07;41.25;;;20.90;;
54416;SDS011;40326;51.220;7.250;2022-10-31T08:17:36;38.90;;;21.08;;
54416;SDS011;40326;51.220;7.250;2022-10-31T08:20:02;36.67;;;20.95;;
54416;SDS011;40326;51.220;7.250;2022-10-31T08:22:29;35.75;;;19.77;;
54416;SDS011;40326;51.220;7.250;2022-10-31T08:24:54;29.00;;;18.13;;
54416;SDS011;40326;51.220;7.250;2022-10-31T08:27:19;38.17;;;18.35;;
54416;SDS011;40326;51.220;7.250;2022-10-31T08:29:45;29.63;;;17.30;;
54416;SDS011;40326;51.220;7.250;2022-10-31T08:32:10;31.70;;;17.02;;
54416;SDS011;40326;51.220;7.250;2022-10-31T08:34:35;28.77;;;15.95;;
54416;SDS011;40326;51.220;7.250;2022-10-31T08:37:00;26.00;;;16.60;;
54416;SDS011;40326;51.220;7.250;2022-10-31T08:39:26;30.75;;;15.85;;
54416;SDS011;40326;51.220;7.250;2022-10-31T08:41:51;27.45;;;14.80;;
54416;SDS011;40326;51.220;7.250;2022-10-31T08:44:16;28.08;;;14.65;;
54416;SDS011;40326;51.220;7.250;2022-10-31T08:46:42;23.95;;;14.68;;
54416;SDS011;40326;51.220;7.250;2022-10-31T08:49:07;27.08;;;14.07;;
54416;SDS011;40326;51.220;7.250;2022-10-31T08:51:32;24.70;;;14.52;;
54416;SDS011;40326;51.220;7.250;2022-10-31T08:53:58;23.30;;;13.95;;
54416;SDS011;40326;51.220;7.250;2022-10-31T08:56:23;24.13;;;12.80;;
54416;SDS011;40326;51.220;7.250;2022-10-31T08:58:48;22.83;;;12.63;;
54416;SDS011;40326;51.220;7.250;2022-10-31T09:01:14;20.10;;;13.07;;
54416;SDS011;40326;51.220;7.250;2022-10-31T09:03:39;20.95;;;12.85;;
54416;SDS011;40326;51.220;7.250;2022-10-31T09:06:04;23.52;;;12.23;;
54416;SDS011;40326;51.220;7.250;2022-10-31T09:08:33;22.23;;;13.20;;
54416;SDS011;40326;51.220;7.250;2022-10-31T09:10:59;22.60;;;12.52;;
54416;SDS011;40326;51.220;7.250;2022-10-31T09:13:24;19.98;;;12.02;;
54416;SDS011;40326;51.220;7.250;2022-10-31T09:15:50;18.38;;;11.85;;
54416;SDS011;40326;51.220;7.250;2022-10-31T09:18:20;19.08;;;11.57;;
54416;SDS011;40326;51.220;7.250;2022-10-31T09:20:48;21.90;;;10.88;;
54416;SDS011;40326;51.220;7.250;2022-10-31T09:23:18;21.98;;;11.57;;
54416;SDS011;40326;51.220;7.250;2022-10-31T09:25:45;22.42;;;11.15;;
54416;SDS011;40326;51.220;7.250;2022-10-31T09:28:12;19.33;;;11.15;;
54416;SDS011;40326;51.220;7.250;2022-10-31T09:30:42;15.40;;;10.38;;
54416;SDS011;40326;51.220;7.250;2022-10-31T09:33:11;16.40;;;9.77;;
54416;SDS011;40326;51.220;7.250;2022-10-31T09:35:37;14.60;;;9.82;;
54416;SDS011;40326;51.220;7.250;2022-10-31T09:38:04;18.38;;;10.35;;
54416;SDS011;40326;51.220;7.250;2022-10-31T09:54:13;14.25;;;9.25;;
54416;SDS011;40326;51.220;7.250;2022-10-31T09:56:43;14.13;;;8.52;;
54416;SDS011;40326;51.220;7.250;2022-10-31T09:59:30;13.30;;;8.32;;
54416;SDS011;40326;51.220;7.250;2022-10-31T10:02:09;16.58;;;8.40;;
54416;SDS011;40326;51.220;7.250;2022-10-31T10:04:50;13.60;;;8.18;;
54416;SDS011;40326;51.220;7.250;2022-10-31T10:09:41;14.88;;;8.50;;
54416;SDS011;40326;51.220;7.250;2022-10-31T10:20:37;12.43;;;7.05;;
54416;SDS011;40326;51.220;7.250;2022-10-31T10:26:18;11.98;;;7.00;;
54416;SDS011;40326;51.220;7.250;2022-10-31T10:28:51;11.07;;;6.53;;
54416;SDS011;40326;51.220;7.250;2022-10-31T10:31:23;13.18;;;6.63;;
54416;SDS011;40326;51.220;7.250;2022-10-31T10:36:20;12.60;;;6.22;;
54416;SDS011;40326;51.220;7.250;2022-10-31T10:38:56;13.68;;;6.05;;
54416;SDS011;40326;51.220;7.250;2022-10-31T10:41:27;15.48;;;6.40;;
54416;SDS011;40326;51.220;7.250;2022-10-31T10:43:56;10.13;;;5.80;;
54416;SDS011;40326;51.220;7.250;2022-10-31T10:49:18;10.57;;;5.68;;
54416;SDS011;40326;51.220;7.250;2022-10-31T11:02:50;11.70;;;5.00;;
54416;SDS011;40326;51.220;7.250;2022-10-31T11:08:24;11.60;;;4.85;;
54416;SDS011;40326;51.220;7.250;2022-10-31T11:11:04;8.45;;;4.53;;
54416;SDS011;40326;51.220;7.250;2022-10-31T11:13:36;11.20;;;4.82;;
54416;SDS011;40326;51.220;7.250;2022-10-31T11:16:12;8.77;;;4.43;;
54416;SDS011;40326;51.220;7.250;2022-10-31T11:18:41;9.98;;;4.50;;
54416;SDS011;40326;51.220;7.250;2022-10-31T11:21:23;8.70;;;3.85;;
54416;SDS011;40326;51.220;7.250;2022-10-31T11:24:01;13.05;;;4.07;;
54416;SDS011;40326;51.220;7.250;2022-10-31T11:26:48;10.30;;;4.45;;
54416;SDS011;40326;51.220;7.250;2022-10-31T11:29:21;8.90;;;4.03;;
54416;SDS011;40326;51.220;7.250;2022-10-31T11:31:50;12.85;;;4.47;;
54416;SDS011;40326;51.220;7.250;2022-10-31T11:37:12;8.67;;;3.70;;
54416;SDS011;40326;51.220;7.250;2022-10-31T11:39:44;9.68;;;3.50;;
54416;SDS011;40326;51.220;7.250;2022-10-31T11:42:19;8.13;;;3.88;;
54416;SDS011;40326;51.220;7.250;2022-10-31T11:44:46;11.43;;;4.30;;
54416;SDS011;40326;51.220;7.250;2022-10-31T11:47:14;8.45;;;3.85;;
54416;SDS011;40326;51.220;7.250;2022-10-31T11:49:42;9.27;;;3.72;;
54416;SDS011;40326;51.220;7.250;2022-10-31T11:54:44;11.23;;;3.67;;
54416;SDS011;40326;51.220;7.250;2022-10-31T11:57:26;11.45;;;4.40;;
54416;SDS011;40326;51.220;7.250;2022-10-31T12:00:24;14.43;;;3.88;;
54416;SDS011;40326;51.220;7.250;2022-10-31T12:02:50;7.68;;;3.70;;
54416;SDS011;40326;51.220;7.250;2022-10-31T12:05:26;11.55;;;4.30;;
54416;SDS011;40326;51.220;7.250;2022-10-31T12:07:57;9.68;;;3.95;;
54416;SDS011;40326;51.220;7.250;2022-10-31T12:10:24;9.98;;;3.65;;
54416;SDS011;40326;51.220;7.250;2022-10-31T12:13:11;10.13;;;3.63;;
54416;SDS011;40326;51.220;7.250;2022-10-31T12:15:42;8.55;;;3.55;;
54416;SDS011;40326;51.220;7.250;2022-10-31T12:23:32;9.68;;;4.05;;
54416;SDS011;40326;51.220;7.250;2022-10-31T12:27:08;9.35;;;3.63;;
54416;SDS011;40326;51.220;7.250;2022-10-31T12:29:26;9.32;;;3.60;;
54416;SDS011;40326;51.220;7.250;2022-10-31T12:32:18;9.23;;;3.78;;
54416;SDS011;40326;51.220;7.250;2022-10-31T12:35:02;8.93;;;3.55;;
54416;SDS011;40326;51.220;7.250;2022-10-31T12:37:52;8.77;;;3.80;;
54416;SDS011;40326;51.220;7.250;2022-10-31T12:46:00;9.82;;;3.75;;
54416;SDS011;40326;51.220;7.250;2022-10-31T12:51:31;7.97;;;3.80;;
54416;SDS011;40326;51.220;7.250;2022-10-31T12:56:55;11.52;;;3.75;;
54416;SDS011;40326;51.220;7.250;2022-10-31T12:59:43;11.98;;;3.95;;
54416;SDS011;40326;51.220;7.250;2022-10-31T13:02:19;9.35;;;3.70;;
54416;SDS011;40326;51.220;7.250;2022-10-31T13:07:34;7.78;;;3.60;;
54416;SDS011;40326;51.220;7.250;2022-10-31T13:10:47;11.23;;;4.20;;
54416;SDS011;40326;51.220;7.250;2022-10-31T13:13:02;9.13;;;3.60;;
54416;SDS011;40326;51.220;7.250;2022-10-31T13:15:40;8.82;;;3.55;;
54416;SDS011;40326;51.220;7.250;2022-10-31T13:18:18;7.53;;;3.80;;
54416;SDS011;40326;51.220;7.250;2022-10-31T13:20:49;10.25;;;3.95;;
54416;SDS011;40326;51.220;7.250;2022-10-31T13:23:31;11.75;;;3.72;;
54416;SDS011;40326;51.220;7.250;2022-10-31T13:28:48;7.28;;;4.03;;
54416;SDS011;40326;51.220;7.250;2022-10-31T13:31:22;9.32;;;3.88;;
54416;SDS011;40326;51.220;7.250;2022-10-31T13:33:49;8.05;;;3.60;;
54416;SDS011;40326;51.220;7.250;2022-10-31T13:42:19;9.48;;;3.55;;
54416;SDS011;40326;51.220;7.250;2022-10-31T13:44:53;9.65;;;3.70;;
54416;SDS011;40326;51.220;7.250;2022-10-31T13:47:23;10.27;;;4.28;;
54416;SDS011;40326;51.220;7.250;2022-10-31T13:49:50;12.75;;;4.53;;
54416;SDS011;40326;51.220;7.250;2022-10-31T13:52:21;12.40;;;4.00;;
54416;SDS011;40326;51.220;7.250;2022-10-31T13:54:49;9.68;;;4.10;;
54416;SDS011;40326;51.220;7.250;2022-10-31T13:57:30;10.98;;;4.53;;
54416;SDS011;40326;51.220;7.250;2022-10-31T13:59:59;9.05;;;3.85;;
54416;SDS011;40326;51.220;7.250;2022-10-31T14:02:31;8.80;;;3.85;;
54416;SDS011;40326;51.220;7.250;2022-10-31T14:05:06;11.15;;;5.10;;
54416;SDS011;40326;51.220;7.250;2022-10-31T14:07:48;12.32;;;4.20;;
54416;SDS011;40326;51.220;7.250;2022-10-31T14:13:04;11.88;;;4.43;;
54416;SDS011;40326;51.220;7.250;2022-10-31T14:15:32;11.25;;;4.18;;
54416;SDS011;40326;51.220;7.250;2022-10-31T14:18:02;12.15;;;4.25;;
54416;SDS011;40326;51.220;7.250;2022-10-31T14:20:37;9.93;;;4.55;;
54416;SDS011;40326;51.220;7.250;2022-10-31T14:26:06;9.35;;;3.63;;
54416;SDS011;40326;51.220;7.250;2022-10-31T14:28:41;10.32;;;4.50;;
54416;SDS011;40326;51.220;7.250;2022-10-31T14:33:54;9.23;;;4.50;;
54416;SDS011;40326;51.220;7.250;2022-10-31T14:39:21;9.15;;;3.70;;
54416;SDS011;40326;51.220;7.250;2022-10-31T14:55:53;11.55;;;3.28;;
54416;SDS011;40326;51.220;7.250;2022-10-31T14:58:25;9.38;;;3.83;;
54416;SDS011;40326;51.220;7.250;2022-10-31T15:00:58;11.38;;;4.05;;
54416;SDS011;40326;51.220;7.250;2022-10-31T15:05:55;7.95;;;3.40;;
54416;SDS011;40326;51.220;7.250;2022-10-31T15:08:40;9.38;;;3.30;;
54416;SDS011;40326;51.220;7.250;2022-10-31T15:11:13;6.53;;;2.80;;
54416;SDS011;40326;51.220;7.250;2022-10-31T15:13:46;9.82;;;4.25;;
54416;SDS011;40326;51.220;7.250;2022-10-31T15:16:17;11.23;;;3.40;;
54416;SDS011;40326;51.220;7.250;2022-10-31T15:18:52;9.02;;;3.28;;
54416;SDS011;40326;51.220;7.250;2022-10-31T15:21:27;15.80;;;4.07;;
54416;SDS011;40326;51.220;7.250;2022-10-31T15:23:54;10.80;;;3.67;;
54416;SDS011;40326;51.220;7.250;2022-10-31T15:26:22;10.38;;;3.13;;
54416;SDS011;40326;51.220;7.250;2022-10-31T15:28:59;6.90;;;2.90;;
54416;SDS011;40326;51.220;7.250;2022-10-31T15:31:25;9.48;;;2.88;;
54416;SDS011;40326;51.220;7.250;2022-10-31T15:33:50;5.80;;;2.75;;
54416;SDS011;40326;51.220;7.250;2022-10-31T15:36:21;9.27;;;3.60;;
54416;SDS011;40326;51.220;7.250;2022-10-31T15:38:48;6.40;;;2.78;;
54416;SDS011;40326;51.220;7.250;2022-10-31T15:41:28;9.93;;;3.35;;
54416;SDS011;40326;51.220;7.250;2022-10-31T15:46:37;8.18;;;3.08;;
54416;SDS011;40326;51.220;7.250;2022-10-31T15:49:03;7.50;;;3.88;;
54416;SDS011;40326;51.220;7.250;2022-10-31T15:51:29;10.00;;;3.38;;
54416;SDS011;40326;51.220;7.250;2022-10-31T15:53:58;9.07;;;3.15;;
54416;SDS011;40326;51.220;7.250;2022-10-31T15:56:26;9.32;;;3.38;;
54416;SDS011;40326;51.220;7.250;2022-10-31T15:58:57;10.85;;;3.92;;
54416;SDS011;40326;51.220;7.250;2022-10-31T16:04:23;8.98;;;3.03;;
54416;SDS011;40326;51.220;7.250;2022-10-31T16:09:48;6.68;;;3.20;;
54416;SDS011;40326;51.220;7.250;2022-10-31T16:12:15;9.57;;;3.42;;
54416;SDS011;40326;51.220;7.250;2022-10-31T16:14:41;7.57;;;3.35;;
54416;SDS011;40326;51.220;7.250;2022-10-31T16:17:15;8.57;;;2.90;;
54416;SDS011;40326;51.220;7.250;2022-10-31T16:19:50;18.23;;;13.98;;
54416;SDS011;40326;51.220;7.250;2022-10-31T16:22:20;5.97;;;2.97;;
54416;SDS011;40326;51.220;7.250;2022-10-31T16:24:59;6.60;;;2.85;;
54416;SDS011;40326;51.220;7.250;2022-10-31T16:27:33;8.88;;;3.08;;
54416;SDS011;40326;51.220;7.250;2022-10-31T16:30:01;8.13;;;3.13;;
54416;SDS011;40326;51.220;7.250;2022-10-31T16:37:57;9.52;;;2.88;;
54416;SDS011;40326;51.220;7.250;2022-10-31T16:40:22;9.43;;;3.03;;
54416;SDS011;40326;51.220;7.250;2022-10-31T16:42:48;6.88;;;2.97;;
54416;SDS011;40326;51.220;7.250;2022-10-31T16:45:15;9.27;;;3.03;;
54416;SDS011;40326;51.220;7.250;2022-10-31T16:50:26;7.57;;;2.92;;
54416;SDS011;40326;51.220;7.250;2022-10-31T16:52:52;7.25;;;3.05;;
54416;SDS011;40326;51.220;7.250;2022-10-31T16:55:17;9.52;;;3.22;;
54416;SDS011;40326;51.220;7.250;2022-10-31T16:57:45;8.65;;;3.58;;
54416;SDS011;40326;51.220;7.250;2022-10-31T17:00:15;11.18;;;3.38;;
54416;SDS011;40326;51.220;7.250;2022-10-31T17:02:42;7.63;;;3.10;;
54416;SDS011;40326;51.220;7.250;2022-10-31T17:05:12;9.23;;;3.10;;
54416;SDS011;40326;51.220;7.250;2022-10-31T17:07:38;10.50;;;3.17;;
54416;SDS011;40326;51.220;7.250;2022-10-31T17:10:05;7.97;;;3.00;;
54416;SDS011;40326;51.220;7.250;2022-10-31T17:12:30;8.63;;;3.38;;
54416;SDS011;40326;51.220;7.250;2022-10-31T17:14:56;9.25;;;3.10;;
54416;SDS011;40326;51.220;7.250;2022-10-31T17:17:21;12.13;;;3.95;;
54416;SDS011;40326;51.220;7.250;2022-10-31T17:19:47;8.57;;;2.70;;
54416;SDS011;40326;51.220;7.250;2022-10-31T17:22:12;7.53;;;3.10;;
54416;SDS011;40326;51.220;7.250;2022-10-31T17:24:39;17.70;;;4.72;;
54416;SDS011;40326;51.220;7.250;2022-10-31T17:27:04;8.77;;;2.88;;
54416;SDS011;40326;51.220;7.250;2022-10-31T17:29:32;9.18;;;2.83;;
54416;SDS011;40326;51.220;7.250;2022-10-31T17:31:59;6.55;;;3.33;;
54416;SDS011;40326;51.220;7.250;2022-10-31T17:34:25;10.60;;;3.30;;
54416;SDS011;40326;51.220;7.250;2022-10-31T17:36:51;9.30;;;2.95;;
54416;SDS011;40326;51.220;7.250;2022-10-31T17:39:20;6.95;;;2.80;;
54416;SDS011;40326;51.220;7.250;2022-10-31T17:41:48;5.97;;;2.80;;
54416;SDS011;40326;51.220;7.250;2022-10-31T17:44:15;7.20;;;3.10;;
54416;SDS011;40326;51.220;7.250;2022-10-31T17:46:40;10.13;;;3.50;;
54416;SDS011;40326;51.220;7.250;2022-10-31T17:49:05;8.95;;;2.63;;
54416;SDS011;40326;51.220;7.250;2022-10-31T17:51:35;16.30;;;3.25;;
54416;SDS011;40326;51.220;7.250;2022-10-31T17:54:00;10.93;;;3.13;;
54416;SDS011;40326;51.220;7.250;2022-10-31T17:56:25;7.43;;;3.03;;
54416;SDS011;40326;51.220;7.250;2022-10-31T17:58:51;11.98;;;3.28;;
54416;SDS011;40326;51.220;7.250;2022-10-31T18:01:17;12.75;;;3.65;;
54416;SDS011;40326;51.220;7.250;2022-10-31T18:03:43;7.85;;;3.47;;
54416;SDS011;40326;51.220;7.250;2022-10-31T18:06:09;10.55;;;4.43;;
54416;SDS011;40326;51.220;7.250;2022-10-31T18:08:36;10.55;;;3.95;;
54416;SDS011;40326;51.220;7.250;2022-10-31T18:11:09;9.90;;;3.08;;
54416;SDS011;40326;51.220;7.250;2022-10-31T18:13:38;8.55;;;3.17;;
54416;SDS011;40326;51.220;7.250;2022-10-31T18:16:14;8.40;;;3.00;;
54416;SDS011;40326;51.220;7.250;2022-10-31T18:18:40;12.77;;;3.75;;
54416;SDS011;40326;51.220;7.250;2022-10-31T18:21:06;12.75;;;3.17;;
54416;SDS011;40326;51.220;7.250;2022-10-31T18:23:31;8.20;;;3.38;;
54416;SDS011;40326;51.220;7.250;2022-10-31T18:25:59;10.07;;;3.80;;
54416;SDS011;40326;51.220;7.250;2022-10-31T18:28:24;8.60;;;3.70;;
54416;SDS011;40326;51.220;7.250;2022-10-31T18:30:50;12.32;;;3.60;;
54416;SDS011;40326;51.220;7.250;2022-10-31T18:33:15;8.20;;;3.30;;
54416;SDS011;40326;51.220;7.250;2022-10-31T18:35:41;8.75;;;3.25;;
54416;SDS011;40326;51.220;7.250;2022-10-31T18:38:06;10.60;;;3.67;;
54416;SDS011;40326;51.220;7.250;2022-10-31T18:40:33;12.32;;;3.45;;
54416;SDS011;40326;51.220;7.250;2022-10-31T18:43:00;8.00;;;3.42;;
54416;SDS011;40326;51.220;7.250;2022-10-31T18:45:25;7.65;;;3.13;;
54416;SDS011;40326;51.220;7.250;2022-10-31T18:47:51;8.20;;;3.10;;
54416;SDS011;40326;51.220;7.250;2022-10-31T18:50:16;8.35;;;3.88;;
54416;SDS011;40326;51.220;7.250;2022-10-31T18:52:41;8.52;;;3.42;;
54416;SDS011;40326;51.220;7.250;2022-10-31T18:55:07;15.95;;;3.85;;
54416;SDS011;40326;51.220;7.250;2022-10-31T18:57:32;9.48;;;3.70;;
54416;SDS011;40326;51.220;7.250;2022-10-31T18:59:58;9.93;;;3.20;;
54416;SDS011;40326;51.220;7.250;2022-10-31T19:02:23;7.15;;;3.20;;
54416;SDS011;40326;51.220;7.250;2022-10-31T19:04:48;6.50;;;3.20;;
54416;SDS011;40326;51.220;7.250;2022-10-31T19:07:14;8.82;;;3.53;;
54416;SDS011;40326;51.220;7.250;2022-10-31T19:09:39;7.18;;;3.15;;
54416;SDS011;40326;51.220;7.250;2022-10-31T19:12:07;6.57;;;3.35;;
54416;SDS011;40326;51.220;7.250;2022-10-31T19:14:32;8.40;;;3.40;;
54416;SDS011;40326;51.220;7.250;2022-10-31T19:16:57;6.43;;;3.40;;
54416;SDS011;40326;51.220;7.250;2022-10-31T19:19:23;13.40;;;3.50;;
54416;SDS011;40326;51.220;7.250;2022-10-31T19:21:48;10.48;;;3.78;;
54416;SDS011;40326;51.220;7.250;2022-10-31T19:24:13;8.02;;;3.63;;
54416;SDS011;40326;51.220;7.250;2022-10-31T19:26:39;7.10;;;3.00;;
54416;SDS011;40326;51.220;7.250;2022-10-31T19:29:04;7.45;;;3.28;;
54416;SDS011;40326;51.220;7.250;2022-10-31T19:31:29;9.52;;;3.45;;
54416;SDS011;40326;51.220;7.250;2022-10-31T19:33:55;7.47;;;3.45;;
54416;SDS011;40326;51.220;7.250;2022-10-31T19:36:20;8.50;;;4.30;;
54416;SDS011;40326;51.220;7.250;2022-10-31T19:38:46;7.10;;;3.55;;
54416;SDS011;40326;51.220;7.250;2022-10-31T19:41:14;7.78;;;3.42;;
54416;SDS011;40326;51.220;7.250;2022-10-31T19:43:41;10.18;;;3.58;;
54416;SDS011;40326;51.220;7.250;2022-10-31T19:46:07;9.82;;;3.25;;
54416;SDS011;40326;51.220;7.250;2022-10-31T19:48:35;7.88;;;3.20;;
54416;SDS011;40326;51.220;7.250;2022-10-31T19:51:03;8.00;;;3.15;;
54416;SDS011;40326;51.220;7.250;2022-10-31T19:53:40;8.40;;;3.25;;
54416;SDS011;40326;51.220;7.250;2022-10-31T19:56:18;8.63;;;3.15;;
54416;SDS011;40326;51.220;7.250;2022-10-31T19:58:45;8.60;;;3.30;;
54416;SDS011;40326;51.220;7.250;2022-10-31T20:01:11;8.02;;;3.83;;
54416;SDS011;40326;51.220;7.250;2022-10-31T20:03:38;8.27;;;3.60;;
54416;SDS011;40326;51.220;7.250;2022-10-31T20:06:04;9.85;;;3.63;;
54416;SDS011;40326;51.220;7.250;2022-10-31T20:08:30;10.50;;;3.28;;
54416;SDS011;40326;51.220;7.250;2022-10-31T20:11:00;5.72;;;2.95;;
54416;SDS011;40326;51.220;7.250;2022-10-31T20:13:27;8.00;;;3.15;;
54416;SDS011;40326;51.220;7.250;2022-10-31T20:15:57;7.30;;;3.47;;
54416;SDS011;40326;51.220;7.250;2022-10-31T20:18:24;7.53;;;3.53;;
54416;SDS011;40326;51.220;7.250;2022-10-31T20:20:50;6.40;;;3.20;;
54416;SDS011;40326;51.220;7.250;2022-10-31T20:23:17;11.07;;;3.50;;
54416;SDS011;40326;51.220;7.250;2022-10-31T20:25:49;9.15;;;3.78;;
54416;SDS011;40326;51.220;7.250;2022-10-31T20:28:15;11.43;;;3.58;;
54416;SDS011;40326;51.220;7.250;2022-10-31T20:30:40;11.27;;;4.00;;
54416;SDS011;40326;51.220;7.250;2022-10-31T20:33:06;9.77;;;3.72;;
54416;SDS011;40326;51.220;7.250;2022-10-31T20:35:34;8.50;;;3.53;;
54416;SDS011;40326;51.220;7.250;2022-10-31T20:38:01;8.20;;;3.55;;
54416;SDS011;40326;51.220;7.250;2022-10-31T20:40:28;6.47;;;3.30;;
54416;SDS011;40326;51.220;7.250;2022-10-31T20:42:54;9.52;;;3.90;;
54416;SDS011;40326;51.220;7.250;2022-10-31T20:45:19;10.65;;;4.18;;
54416;SDS011;40326;51.220;7.250;2022-10-31T20:47:45;8.32;;;3.60;;
54416;SDS011;40326;51.220;7.250;2022-10-31T20:50:10;6.78;;;3.55;;
54416;SDS011;40326;51.220;7.250;2022-10-31T20:52:35;9.00;;;4.18;;
54416;SDS011;40326;51.220;7.250;2022-10-31T20:55:01;12.23;;;4.40;;
54416;SDS011;40326;51.220;7.250;2022-10-31T20:57:26;7.22;;;3.60;;
54416;SDS011;40326;51.220;7.250;2022-10-31T20:59:51;8.07;;;3.22;;
54416;SDS011;40326;51.220;7.250;2022-10-31T21:02:17;10.20;;;3.60;;
54416;SDS011;40326;51.220;7.250;2022-10-31T21:04:42;7.85;;;3.75;;
54416;SDS011;40326;51.220;7.250;2022-10-31T21:07:07;6.90;;;3.63;;
54416;SDS011;40326;51.220;7.250;2022-10-31T21:09:33;7.40;;;3.58;;
54416;SDS011;40326;51.220;7.250;2022-10-31T21:11:59;10.07;;;3.80;;
54416;SDS011;40326;51.220;7.250;2022-10-31T21:14:24;8.10;;;3.35;;
54416;SDS011;40326;51.220;7.250;2022-10-31T21:16:49;6.95;;;3.40;;
54416;SDS011;40326;51.220;7.250;2022-10-31T21:19:14;9.10;;;3.45;;